createdAt,value
2018-11-27T00:01:29.184Z,92.50
2018-11-27T00:03:58.262Z,92.70
2018-11-27T00:06:26.969Z,92.80
2018-11-27T00:08:56.345Z,93.40
2018-11-27T00:11:25.029Z,92.90
2018-11-27T00:13:54.708Z,92.60
2018-11-27T00:16:23.432Z,92.70
2018-11-27T00:18:52.216Z,92.80
2018-11-27T00:21:20.946Z,93.10
2018-11-27T00:23:49.642Z,93.00
2018-11-27T00:26:19.035Z,92.80
2018-11-27T00:28:47.696Z,92.80
2018-11-27T00:31:16.408Z,93.00
2018-11-27T00:33:45.134Z,93.00
2018-11-27T00:36:14.529Z,93.20
2018-11-27T00:38:44.009Z,93.50
2018-11-27T00:41:13.391Z,93.50
2018-11-27T00:43:42.115Z,93.30
2018-11-27T00:46:10.820Z,93.80
2018-11-27T00:48:40.282Z,93.70
2018-11-27T00:51:09.050Z,93.50
2018-11-27T00:53:37.760Z,93.90
2018-11-27T00:56:07.020Z,93.60
2018-11-27T00:58:35.681Z,93.50
2018-11-27T01:01:05.273Z,93.80
2018-11-27T01:03:33.978Z,93.60
2018-11-27T01:06:02.670Z,93.60
2018-11-27T01:08:32.085Z,93.60
2018-11-27T01:11:00.833Z,93.40
2018-11-27T01:13:29.602Z,93.90
2018-11-27T01:15:58.381Z,94.00
2018-11-27T01:18:27.127Z,94.20
2018-11-27T01:20:55.838Z,93.90
2018-11-27T01:23:24.551Z,93.90
2018-11-27T01:25:53.349Z,93.90
2018-11-27T01:28:22.047Z,94.10
2018-11-27T01:30:50.765Z,94.40
2018-11-27T01:33:19.499Z,94.00
2018-11-27T01:35:48.179Z,93.90
2018-11-27T01:38:16.891Z,93.80
2018-11-27T01:40:45.594Z,94.40
2018-11-27T01:43:14.800Z,93.80
2018-11-27T01:45:43.541Z,93.80
2018-11-27T01:48:12.377Z,93.70
2018-11-27T01:50:42.165Z,93.80
2018-11-27T01:53:10.931Z,93.90
2018-11-27T01:55:45.217Z,93.90
2018-11-27T01:58:19.678Z,93.90
2018-11-27T02:00:48.761Z,93.80
2018-11-27T02:03:17.529Z,93.80
2018-11-27T02:05:47.480Z,93.80
2018-11-27T02:08:16.195Z,93.90
2018-11-27T02:10:44.920Z,94.00
2018-11-27T02:13:13.596Z,93.90
2018-11-27T02:15:42.344Z,94.20
2018-11-27T02:18:11.064Z,94.20
2018-11-27T02:20:40.776Z,94.10
2018-11-27T02:23:10.017Z,94.00
2018-11-27T02:25:38.896Z,94.00
2018-11-27T02:28:09.606Z,93.90
2018-11-27T02:30:43.800Z,94.10
2018-11-27T02:33:12.569Z,94.10
2018-11-27T02:35:42.209Z,94.00
2018-11-27T02:38:10.943Z,94.10
2018-11-27T02:40:39.675Z,94.10
2018-11-27T02:43:08.356Z,94.10
2018-11-27T02:45:37.838Z,94.10
2018-11-27T02:48:07.699Z,94.00
2018-11-27T02:50:37.124Z,94.00
2018-11-27T02:53:05.472Z,94.10
2018-11-27T02:55:39.239Z,94.00
2018-11-27T02:58:08.023Z,94.00
2018-11-27T03:00:36.776Z,94.00
2018-11-27T03:03:06.580Z,94.00
2018-11-27T03:05:36.413Z,94.00
2018-11-27T03:08:06.695Z,94.30
2018-11-27T03:10:35.498Z,94.20
2018-11-27T03:13:10.446Z,94.00
2018-11-27T03:15:40.103Z,94.50
2018-11-27T03:18:15.036Z,94.10
2018-11-27T03:20:44.525Z,94.00
2018-11-27T03:23:14.254Z,94.00
2018-11-27T03:25:43.889Z,94.30
2018-11-27T03:28:14.611Z,94.10
2018-11-27T03:30:44.538Z,94.20
2018-11-27T03:33:15.478Z,94.00
2018-11-27T03:35:44.322Z,94.00
2018-11-27T03:38:13.093Z,93.90
2018-11-27T03:40:41.824Z,94.40
2018-11-27T03:43:10.610Z,94.30
2018-11-27T03:45:40.237Z,94.20
2018-11-27T03:48:09.022Z,94.20
2018-11-27T03:50:37.817Z,94.30
2018-11-27T03:53:07.722Z,94.30
2018-11-27T03:55:37.947Z,94.00
2018-11-27T03:58:07.351Z,94.50
2018-11-27T04:00:37.075Z,94.40
2018-11-27T04:03:09.324Z,94.40
2018-11-27T04:05:39.279Z,94.30
2018-11-27T04:08:09.320Z,94.10
2018-11-27T04:10:39.713Z,94.10
2018-11-27T04:13:09.384Z,94.10
2018-11-27T04:15:38.798Z,94.00
2018-11-27T04:18:07.610Z,94.00
2018-11-27T04:20:37.051Z,93.90
2018-11-27T04:23:05.866Z,94.00
2018-11-27T04:25:34.568Z,93.80
2018-11-27T04:28:05.610Z,93.90
2018-11-27T04:30:34.393Z,93.70
2018-11-27T04:33:03.960Z,93.80
2018-11-27T04:35:33.466Z,93.40
2018-11-27T04:38:02.247Z,93.50
2018-11-27T04:40:35.059Z,93.50
2018-11-27T04:43:05.466Z,93.30
2018-11-27T04:45:34.227Z,93.00
2018-11-27T04:48:02.931Z,93.00
2018-11-27T04:50:31.640Z,92.70
2018-11-27T04:53:00.673Z,92.70
2018-11-27T04:55:29.636Z,92.80
2018-11-27T04:57:59.638Z,92.70
2018-11-27T05:00:28.620Z,92.70
2018-11-27T05:02:57.522Z,92.80
2018-11-27T05:05:28.012Z,92.50
2018-11-27T05:07:58.142Z,93.00
2018-11-27T05:10:27.046Z,92.60
2018-11-27T05:12:55.910Z,92.60
2018-11-27T05:15:26.140Z,92.40
2018-11-27T05:18:02.869Z,92.40
2018-11-27T05:20:36.314Z,92.30
2018-11-27T05:23:07.542Z,92.50
2018-11-27T05:25:39.791Z,92.40
2018-11-27T05:28:14.248Z,92.30
2018-11-27T05:30:42.955Z,92.20
2018-11-27T05:33:11.747Z,92.30
2018-11-27T05:35:40.583Z,92.10
2018-11-27T05:38:14.407Z,92.00
2018-11-27T05:40:43.205Z,91.70
2018-11-27T05:43:11.934Z,91.90
2018-11-27T05:46:11.982Z,91.60
2018-11-27T05:48:46.183Z,91.60
2018-11-27T05:51:24.761Z,91.80
2018-11-27T05:53:53.760Z,92.00
2018-11-27T05:56:23.594Z,91.90
2018-11-27T05:58:52.348Z,91.80
2018-11-27T06:01:22.837Z,92.00
2018-11-27T06:03:51.980Z,91.90
2018-11-27T06:06:22.203Z,91.80
2018-11-27T06:08:51.044Z,92.00
2018-11-27T06:11:20.352Z,91.60
2018-11-27T06:13:50.183Z,91.70
2018-11-27T06:16:18.891Z,91.40
2018-11-27T06:18:49.086Z,91.90
2018-11-27T06:21:17.748Z,91.80
2018-11-27T06:23:47.293Z,92.10
2018-11-27T06:26:16.788Z,92.00
2018-11-27T06:28:48.756Z,92.10
2018-11-27T06:31:17.635Z,92.20
2018-11-27T06:33:46.439Z,91.50
2018-11-27T06:36:15.199Z,91.20
2018-11-27T06:38:43.853Z,90.70
2018-11-27T06:41:12.523Z,90.90
2018-11-27T06:43:41.339Z,91.00
2018-11-27T06:46:10.079Z,91.60
2018-11-27T06:48:38.803Z,91.90
2018-11-27T06:51:08.791Z,91.40
2018-11-27T06:53:38.472Z,91.00
2018-11-27T06:56:07.305Z,91.30
2018-11-27T06:58:36.051Z,91.60
2018-11-27T07:01:10.193Z,91.80
2018-11-27T07:03:38.853Z,91.50
2018-11-27T07:06:07.560Z,90.80
2018-11-27T07:08:37.217Z,91.10
2018-11-27T07:11:12.099Z,91.50
2018-11-27T07:13:40.916Z,90.90
2018-11-27T07:16:10.383Z,91.00
2018-11-27T07:18:39.460Z,91.10
2018-11-27T07:21:08.137Z,90.80
2018-11-27T07:23:36.864Z,90.80
2018-11-27T07:26:09.713Z,91.20
2018-11-27T07:28:39.117Z,90.90
2018-11-27T07:31:10.673Z,90.10
2018-11-27T07:33:40.322Z,90.00
2018-11-27T07:36:08.986Z,90.20
2018-11-27T07:38:37.650Z,90.30
2018-11-27T07:41:06.551Z,90.10
2018-11-27T07:43:35.259Z,90.20
2018-11-27T07:46:04.089Z,90.00
2018-11-27T07:48:32.717Z,90.00
2018-11-27T07:51:02.179Z,89.70
2018-11-27T07:53:31.031Z,90.20
2018-11-27T07:55:59.746Z,90.10
2018-11-27T07:58:28.486Z,89.80
2018-11-27T08:00:57.293Z,89.70
2018-11-27T08:03:25.976Z,90.30
2018-11-27T08:05:54.641Z,90.40
2018-11-27T08:08:28.541Z,89.40
2018-11-27T08:10:57.306Z,89.30
2018-11-27T08:13:25.939Z,88.70
2018-11-27T08:15:54.589Z,89.10
2018-11-27T08:18:23.245Z,89.70
2018-11-27T08:20:51.928Z,90.00
2018-11-27T08:23:20.619Z,89.90
2018-11-27T08:25:49.301Z,90.00
2018-11-27T08:28:18.643Z,89.70
2018-11-27T08:30:47.374Z,89.60
2018-11-27T08:33:21.824Z,89.90
2018-11-27T08:35:50.539Z,88.40
2018-11-27T08:38:19.250Z,88.00
2018-11-27T08:40:47.961Z,87.00
2018-11-27T08:43:16.717Z,86.50
2018-11-27T08:45:45.425Z,86.80
2018-11-27T08:48:19.632Z,86.50
2018-11-27T08:50:48.341Z,86.70
2018-11-27T08:53:16.989Z,86.90
2018-11-27T08:55:45.669Z,87.00
2018-11-27T08:58:18.585Z,88.30
2018-11-27T09:00:47.319Z,87.20
2018-11-27T09:03:15.978Z,85.60
2018-11-27T09:05:44.700Z,85.00
2018-11-27T09:08:14.201Z,86.20
2018-11-27T09:10:42.840Z,84.90
2018-11-27T09:13:13.381Z,86.00
2018-11-27T09:15:42.582Z,85.80
2018-11-27T09:18:17.581Z,85.10
2018-11-27T09:20:46.870Z,83.90
2018-11-27T09:23:20.945Z,84.30
2018-11-27T09:25:49.711Z,85.30
2018-11-27T09:28:18.440Z,81.80
2018-11-27T09:30:47.813Z,75.30
2018-11-27T09:33:17.265Z,68.70
2018-11-27T09:35:45.997Z,66.90
2018-11-27T09:38:15.591Z,64.00
2018-11-27T09:40:44.359Z,61.80
2018-11-27T09:43:13.043Z,59.10
2018-11-27T09:45:42.873Z,60.10
2018-11-27T09:48:11.589Z,58.50
2018-11-27T09:50:40.327Z,59.50
2018-11-27T09:53:12.051Z,57.40
2018-11-27T09:55:40.716Z,55.00
2018-11-27T09:58:09.399Z,56.00
2018-11-27T10:00:38.132Z,53.60
2018-11-27T10:03:09.717Z,52.90
2018-11-27T10:05:39.171Z,53.40
2018-11-27T10:08:08.523Z,54.20
2018-11-27T10:10:37.236Z,56.00
2018-11-27T10:13:07.224Z,55.50
2018-11-27T10:15:35.964Z,54.70
2018-11-27T10:18:04.780Z,56.00
2018-11-27T10:20:37.708Z,56.00
2018-11-27T10:23:08.523Z,59.40
2018-11-27T10:25:37.204Z,62.60
2018-11-27T10:28:06.724Z,64.40
2018-11-27T10:30:35.463Z,67.50
2018-11-27T10:33:05.292Z,67.50
2018-11-27T10:35:41.230Z,68.50
2018-11-27T10:38:09.894Z,69.50
2018-11-27T10:40:38.570Z,69.40
2018-11-27T10:43:08.735Z,70.00
2018-11-27T10:45:37.472Z,70.60
2018-11-27T10:48:07.051Z,70.40
2018-11-27T10:50:35.738Z,69.50
2018-11-27T10:53:05.083Z,71.30
2018-11-27T10:55:33.727Z,71.70
2018-11-27T10:58:08.606Z,72.50
2018-11-27T11:00:42.055Z,73.60
2018-11-27T11:03:25.939Z,72.40
2018-11-27T11:06:00.332Z,74.20
2018-11-27T11:08:29.031Z,72.80
2018-11-27T11:10:57.681Z,72.20
2018-11-27T11:13:26.392Z,73.10
2018-11-27T11:15:55.111Z,71.60
2018-11-27T11:18:25.116Z,70.20
2018-11-27T11:20:53.762Z,70.40
2018-11-27T11:23:22.398Z,68.30
2018-11-27T11:25:51.037Z,66.10
2018-11-27T11:28:21.287Z,67.00
2018-11-27T11:30:55.409Z,66.60
2018-11-27T11:33:24.751Z,68.90
2018-11-27T11:35:53.417Z,69.00
2018-11-27T11:38:22.104Z,68.70
2018-11-27T11:40:50.740Z,67.00
2018-11-27T11:43:19.377Z,67.20
2018-11-27T11:45:48.058Z,67.80
2018-11-27T11:48:16.692Z,67.10
2018-11-27T11:50:45.349Z,66.00
2018-11-27T11:53:16.618Z,68.70
2018-11-27T11:55:45.831Z,67.50
2018-11-27T11:58:14.475Z,68.10
2018-11-27T12:00:47.489Z,67.30
2018-11-27T12:03:16.149Z,65.80
2018-11-27T12:05:44.819Z,65.40
2018-11-27T12:08:13.477Z,63.40
2018-11-27T12:10:42.102Z,63.20
2018-11-27T12:13:11.515Z,62.70
2018-11-27T12:15:40.183Z,63.60
2018-11-27T12:18:09.933Z,63.40
2018-11-27T12:20:39.440Z,64.90
2018-11-27T12:23:09.733Z,67.90
2018-11-27T12:25:38.667Z,68.30
2018-11-27T12:28:08.628Z,69.10
2018-11-27T12:30:37.314Z,70.20
2018-11-27T12:33:06.465Z,70.20
2018-11-27T12:35:35.461Z,70.00
2018-11-27T12:38:04.227Z,70.20
2018-11-27T12:40:32.903Z,70.80
2018-11-27T12:43:01.547Z,71.00
2018-11-27T12:45:31.870Z,71.10
2018-11-27T12:48:05.233Z,72.40
2018-11-27T12:50:48.947Z,73.00
2018-11-27T12:53:18.615Z,72.90
2018-11-27T12:55:49.449Z,73.70
2018-11-27T12:58:18.180Z,74.40
2018-11-27T13:00:48.089Z,74.90
2018-11-27T13:03:16.785Z,75.60
2018-11-27T13:05:46.286Z,74.80
2018-11-27T13:08:24.190Z,75.10
2018-11-27T13:10:58.381Z,75.30
2018-11-27T13:13:27.022Z,75.70
2018-11-27T13:15:55.650Z,75.80
2018-11-27T13:18:25.218Z,76.30
2018-11-27T13:20:53.891Z,76.30
2018-11-27T13:23:22.510Z,76.50
2018-11-27T13:25:51.219Z,76.90
2018-11-27T13:28:19.961Z,77.40
2018-11-27T13:30:56.024Z,77.50
2018-11-27T13:33:29.302Z,78.00
2018-11-27T13:35:57.950Z,78.60
2018-11-27T13:38:26.600Z,78.50
2018-11-27T13:41:01.008Z,78.70
2018-11-27T13:43:30.284Z,79.30
2018-11-27T13:46:00.104Z,80.00
2018-11-27T13:48:28.815Z,81.80
2018-11-27T13:50:57.443Z,83.20
2018-11-27T13:53:31.980Z,84.00
2018-11-27T13:56:00.602Z,84.60
2018-11-27T13:58:29.806Z,86.50
2018-11-27T14:00:58.515Z,86.80
2018-11-27T14:03:27.180Z,87.50
2018-11-27T14:05:55.821Z,88.10
2018-11-27T14:08:30.005Z,88.50
2018-11-27T14:10:58.676Z,88.90
2018-11-27T14:13:27.390Z,89.40
2018-11-27T14:15:56.083Z,89.90
2018-11-27T14:18:24.749Z,90.10
2018-11-27T14:20:53.500Z,90.20
2018-11-27T14:23:22.168Z,90.40
2018-11-27T14:25:51.076Z,90.50
2018-11-27T14:28:20.035Z,90.80
2018-11-27T14:30:48.684Z,91.00
2018-11-27T14:33:17.380Z,91.10
2018-11-27T14:35:46.033Z,91.30
2018-11-27T14:38:14.715Z,91.30
2018-11-27T14:40:43.399Z,91.80
2018-11-27T14:43:12.796Z,92.10
2018-11-27T14:45:41.523Z,91.80
2018-11-27T14:48:15.443Z,92.20
2018-11-27T14:50:44.163Z,92.40
2018-11-27T14:53:12.790Z,92.50
2018-11-27T14:55:43.090Z,92.40
2018-11-27T14:58:14.972Z,92.60
2018-11-27T15:00:40.476Z,92.60
2018-11-27T15:03:09.155Z,92.50
2018-11-27T15:05:38.865Z,92.50
2018-11-27T15:08:09.808Z,92.50
2018-11-27T15:10:39.740Z,92.60
2018-11-27T15:13:12.083Z,92.70
2018-11-27T15:15:40.771Z,92.80
2018-11-27T15:18:15.071Z,93.00
2018-11-27T15:20:43.821Z,93.50
2018-11-27T15:23:12.528Z,93.00
2018-11-27T15:25:41.186Z,93.00
2018-11-27T15:28:09.857Z,93.30
2018-11-27T15:30:39.811Z,93.10
2018-11-27T15:33:08.627Z,93.20
2018-11-27T15:35:43.387Z,93.40
2018-11-27T15:38:12.114Z,93.40
2018-11-27T15:40:40.963Z,93.40
2018-11-27T15:43:09.841Z,93.40
2018-11-27T15:45:39.461Z,93.50
2018-11-27T15:48:09.194Z,93.30
2018-11-27T15:50:38.551Z,93.30
2018-11-27T15:53:07.230Z,93.20
2018-11-27T15:55:39.352Z,93.20
2018-11-27T15:58:11.403Z,93.10
2018-11-27T16:00:40.961Z,93.00
2018-11-27T16:03:15.207Z,92.90
2018-11-27T16:05:44.986Z,92.70
2018-11-27T16:08:14.045Z,92.70
2018-11-27T16:10:42.748Z,92.60
2018-11-27T16:13:11.432Z,92.70
2018-11-27T16:15:40.224Z,92.70
2018-11-27T16:18:09.081Z,92.70
2018-11-27T16:20:38.119Z,92.30
2018-11-27T16:23:11.462Z,92.20
2018-11-27T16:25:42.713Z,92.20
2018-11-27T16:28:12.754Z,92.00
2018-11-27T16:30:42.922Z,92.10
2018-11-27T16:33:11.643Z,92.20
2018-11-27T16:35:42.116Z,91.90
2018-11-27T16:38:11.476Z,91.60
2018-11-27T16:40:43.600Z,91.50
2018-11-27T16:43:14.812Z,91.50
2018-11-27T16:45:59.770Z,91.40
2018-11-27T16:48:34.716Z,91.70
2018-11-27T16:51:05.402Z,91.90
2018-11-27T16:53:34.933Z,91.60
2018-11-27T16:56:04.941Z,91.40
2018-11-27T16:58:34.110Z,91.80
2018-11-27T17:01:08.982Z,91.80
2018-11-27T17:03:35.968Z,91.80
2018-11-27T17:06:04.899Z,91.90
2018-11-27T17:08:33.978Z,92.10
2018-11-27T17:11:05.943Z,92.10
2018-11-27T17:13:34.651Z,92.20
2018-11-27T17:16:04.201Z,92.40
2018-11-27T17:18:34.005Z,92.30
2018-11-27T17:21:09.986Z,92.60
2018-11-27T17:23:40.723Z,92.50
2018-11-27T17:26:09.653Z,92.50
2018-11-27T17:28:41.589Z,92.60
2018-11-27T17:31:14.717Z,92.60
2018-11-27T17:33:48.632Z,92.70
2018-11-27T17:36:21.912Z,92.80
2018-11-27T17:38:50.868Z,92.70
2018-11-27T17:41:29.000Z,92.60
2018-11-27T18:03:42.500Z,43.90
2018-11-27T18:06:11.101Z,50.20
2018-11-27T18:08:39.708Z,57.20
2018-11-27T18:11:08.388Z,63.50
2018-11-27T18:13:36.993Z,70.40
2018-11-27T18:16:05.949Z,75.80
2018-11-27T18:18:34.576Z,80.30
2018-11-27T18:21:03.205Z,84.20
2018-11-27T18:23:31.813Z,86.70
2018-11-27T18:26:00.542Z,89.40
2018-11-27T18:28:29.190Z,90.70
2018-11-27T18:30:57.828Z,91.10
2018-11-27T18:33:26.456Z,91.90
2018-11-27T18:35:55.099Z,92.30
2018-11-27T18:38:23.736Z,92.80
2018-11-27T18:40:52.478Z,93.10
2018-11-27T18:43:21.134Z,93.20
2018-11-27T18:45:49.811Z,93.30
2018-11-27T18:48:18.531Z,93.60
2018-11-27T18:50:47.221Z,93.40
2018-11-27T18:53:15.920Z,93.70
2018-11-27T18:55:44.638Z,93.60
2018-11-27T18:58:13.262Z,93.70
2018-11-27T19:00:41.881Z,94.00
2018-11-27T19:03:10.552Z,94.00
2018-11-27T19:05:39.518Z,94.10
2018-11-27T19:08:08.275Z,94.10
2018-11-27T19:10:37.223Z,94.20
2018-11-27T19:13:06.944Z,94.20
2018-11-27T19:15:38.129Z,94.20
2018-11-27T19:18:12.633Z,94.20
2018-11-27T19:20:41.358Z,94.30
2018-11-27T19:23:10.015Z,94.60
2018-11-27T19:25:38.632Z,94.20
2018-11-27T19:28:08.134Z,94.30
2018-11-27T19:30:36.770Z,94.30
2018-11-27T19:33:06.184Z,94.50
2018-11-27T19:35:35.496Z,94.50
2018-11-27T19:38:04.290Z,94.50
2018-11-27T19:40:32.969Z,94.50
2018-11-27T19:43:01.642Z,94.70
2018-11-27T19:45:30.278Z,94.70
2018-11-27T19:47:58.998Z,94.80
2018-11-27T19:50:28.023Z,94.90
2018-11-27T19:52:57.177Z,95.10
2018-11-27T19:55:26.188Z,95.20
2018-11-27T19:57:55.630Z,95.10
2018-11-27T20:00:25.655Z,95.00
2018-11-27T20:02:54.854Z,95.00
2018-11-27T20:05:29.557Z,95.10
2018-11-27T20:07:58.442Z,95.10
2018-11-27T20:10:27.082Z,95.40
2018-11-27T20:12:55.792Z,95.30
2018-11-27T20:15:30.032Z,95.40
2018-11-27T20:17:58.843Z,95.90
2018-11-27T20:20:28.518Z,95.80
2018-11-27T20:22:58.034Z,96.10
2018-11-27T20:25:26.717Z,96.00
2018-11-27T20:27:55.387Z,96.10
2018-11-27T20:30:26.133Z,96.10
2018-11-27T20:32:57.770Z,96.50
2018-11-27T20:35:26.946Z,96.40
2018-11-27T20:37:55.954Z,96.40
2018-11-27T20:40:24.770Z,96.70
2018-11-27T20:42:53.425Z,96.90
2018-11-27T20:45:24.454Z,97.00
2018-11-27T20:48:01.506Z,97.20
2018-11-27T20:50:30.143Z,97.10
2018-11-27T20:52:58.823Z,96.90
2018-11-27T20:55:34.527Z,96.70
2018-11-27T20:58:08.870Z,96.40
2018-11-27T21:00:39.663Z,96.40
2018-11-27T21:03:09.361Z,96.60
2018-11-27T21:05:38.036Z,96.20
2018-11-27T21:08:12.500Z,96.00
2018-11-27T21:10:41.157Z,96.00
2018-11-27T21:13:10.978Z,96.00
2018-11-27T21:15:40.902Z,95.90
2018-11-27T21:18:21.111Z,95.80
2018-11-27T21:20:49.790Z,95.70
2018-11-27T21:23:18.462Z,95.80
2018-11-27T21:25:47.049Z,95.70
2018-11-27T21:28:18.013Z,95.70
2018-11-27T21:30:48.429Z,95.60
2018-11-27T21:33:17.092Z,95.60
2018-11-27T21:35:51.399Z,95.80
2018-11-27T21:38:25.384Z,95.50
2018-11-27T21:40:54.026Z,95.50
2018-11-27T21:43:22.619Z,95.30
2018-11-27T21:45:51.267Z,95.30
2018-11-27T21:48:19.958Z,95.30
2018-11-27T21:50:48.570Z,95.40
2018-11-27T21:53:17.190Z,95.40
2018-11-27T21:55:45.830Z,95.50
2018-11-27T21:58:14.429Z,95.60
2018-11-27T22:00:43.370Z,95.60
2018-11-27T22:03:12.614Z,95.80
2018-11-27T22:05:41.287Z,96.20
2018-11-27T22:08:10.079Z,96.30
2018-11-27T22:10:39.047Z,96.30
2018-11-27T22:13:09.576Z,96.30
2018-11-27T22:15:39.538Z,96.10
2018-11-27T22:18:09.178Z,96.20
2018-11-27T22:20:37.832Z,96.10
2018-11-27T22:23:07.515Z,96.30
2018-11-27T22:25:36.239Z,96.30
2018-11-27T22:28:11.865Z,96.40
2018-11-27T22:30:40.464Z,96.60
2018-11-27T22:33:09.396Z,96.50
2018-11-27T22:35:38.379Z,96.40
2018-11-27T22:38:07.892Z,96.40
2018-11-27T22:40:36.637Z,96.90
2018-11-27T22:43:06.556Z,96.70
2018-11-27T22:45:38.560Z,96.70
2018-11-27T22:48:08.657Z,96.60
2018-11-27T22:50:37.308Z,96.60
2018-11-27T22:53:06.780Z,96.90
2018-11-27T22:55:35.663Z,97.10
2018-11-27T22:58:04.923Z,97.00
2018-11-27T23:00:38.832Z,96.70
2018-11-27T23:03:07.449Z,96.60
2018-11-27T23:05:36.038Z,96.80
2018-11-27T23:08:04.726Z,96.80
2018-11-27T23:10:35.200Z,96.90
2018-11-27T23:13:04.014Z,96.80
2018-11-27T23:15:32.650Z,96.80
2018-11-27T23:18:01.323Z,96.90
2018-11-27T23:20:29.982Z,97.00
2018-11-27T23:22:58.605Z,97.10
2018-11-27T23:25:27.254Z,97.00
2018-11-27T23:27:55.869Z,97.00
2018-11-27T23:30:25.456Z,96.90
2018-11-27T23:32:59.531Z,96.90
2018-11-27T23:35:28.134Z,96.80
2018-11-27T23:37:56.769Z,96.50
2018-11-27T23:40:25.452Z,96.50
2018-11-27T23:42:54.111Z,96.30
2018-11-27T23:45:23.684Z,96.10
2018-11-27T23:47:52.364Z,96.10
2018-11-27T23:50:21.906Z,95.60
2018-11-27T23:52:50.519Z,95.60
2018-11-27T23:55:19.920Z,95.60
2018-11-27T23:57:48.637Z,95.50
